Time;durP1;ratioP1;P1;durP2;ratioP2;P2;SDS_P1;SDS_P2;PMS_P1;PMS_P2;Temp;Humidity;BMP_temperature;BMP_pressure;BME280_temperature;BME280_humidity;BME280_pressure;Samples;Min_cycle;Max_cycle;Signal;HPM_P1;HPM_P2
2023/03/04 00:00:18;;;;;;;37.00;18.77;;;2.10;99.90;;;;;;4230403;28;20353;-62
2023/03/04 00:02:19;;;;;;;39.40;18.33;;;2.10;99.90;;;;;;4229254;28;20306;-62
2023/03/04 00:04:20;;;;;;;35.67;19.10;;;2.10;99.90;;;;;;4230389;28;20329;-62
2023/03/04 00:06:21;;;;;;;35.60;19.27;;;2.00;99.90;;;;;;4228992;28;20872;-62
2023/03/04 00:08:23;;;;;;;33.57;18.20;;;2.00;99.90;;;;;;4230165;28;20317;-61
2023/03/04 00:10:24;;;;;;;32.10;17.57;;;2.00;99.90;;;;;;4229371;28;20909;-61
2023/03/04 00:12:25;;;;;;;36.97;18.37;;;2.00;99.90;;;;;;4229451;28;20743;-62
2023/03/04 00:14:26;;;;;;;29.87;16.53;;;2.00;99.90;;;;;;4228330;28;20249;-62
2023/03/04 00:16:27;;;;;;;36.33;16.67;;;1.90;99.90;;;;;;4228423;28;20837;-62
2023/03/04 00:18:28;;;;;;;33.17;16.63;;;1.90;99.90;;;;;;4229059;28;20259;-61
2023/03/04 00:20:29;;;;;;;32.67;16.10;;;2.00;99.90;;;;;;4229127;28;20383;-61
2023/03/04 00:22:31;;;;;;;34.33;17.57;;;2.00;99.90;;;;;;4229161;28;20653;-62
2023/03/04 00:24:32;;;;;;;30.17;16.27;;;2.00;99.90;;;;;;4217274;28;20314;-62
2023/03/04 00:26:33;;;;;;;32.10;15.87;;;2.00;99.90;;;;;;4222092;28;20677;-62
2023/03/04 00:28:34;;;;;;;33.60;16.07;;;2.00;99.90;;;;;;4227905;28;20272;-62
2023/03/04 00:30:35;;;;;;;38.70;16.33;;;2.00;99.90;;;;;;4229121;28;20701;-62
2023/03/04 00:32:36;;;;;;;34.13;17.37;;;2.00;99.90;;;;;;4228628;28;20289;-62
2023/03/04 00:34:39;;;;;;;34.73;17.07;;;2.00;99.90;;;;;;4229930;28;20299;-62
2023/03/04 00:36:43;;;;;;;34.40;17.60;;;2.00;99.90;;;;;;4227482;28;20332;-62
2023/03/04 00:38:44;;;;;;;35.97;17.10;;;2.00;99.90;;;;;;4228832;28;20320;-62
2023/03/04 00:40:45;;;;;;;33.37;16.33;;;2.00;99.90;;;;;;4227981;28;20256;-61
2023/03/04 00:42:46;;;;;;;32.97;16.90;;;2.00;99.90;;;;;;4228968;28;20305;-61
2023/03/04 00:44:48;;;;;;;35.37;17.43;;;2.00;99.90;;;;;;4227757;28;20268;-61
2023/03/04 00:46:49;;;;;;;30.30;16.27;;;2.00;99.90;;;;;;4228780;28;20260;-68
2023/03/04 00:48:50;;;;;;;34.17;18.17;;;2.00;99.90;;;;;;4227941;28;20268;-63
2023/03/04 00:50:52;;;;;;;38.57;18.33;;;2.00;99.90;;;;;;4228848;28;20291;-60
2023/03/04 00:52:53;;;;;;;39.90;19.27;;;2.00;99.90;;;;;;4227732;28;20248;-62
2023/03/04 00:54:55;;;;;;;38.80;21.27;;;2.00;99.90;;;;;;4228535;28;20260;-61
2023/03/04 00:56:56;;;;;;;49.67;23.67;;;1.90;99.90;;;;;;4228358;28;20321;-60
2023/03/04 00:58:57;;;;;;;40.20;22.13;;;1.80;99.90;;;;;;4228212;28;20268;-61
2023/03/04 01:00:58;;;;;;;44.03;22.17;;;1.70;99.90;;;;;;4228546;28;20317;-60
2023/03/04 01:02:59;;;;;;;42.70;23.10;;;1.60;99.90;;;;;;4228196;28;20264;-62
2023/03/04 01:05:00;;;;;;;42.50;21.53;;;1.70;99.90;;;;;;4229361;28;20313;-62
2023/03/04 01:07:01;;;;;;;42.93;21.33;;;1.60;99.90;;;;;;4228102;28;20306;-62
2023/03/04 01:09:03;;;;;;;43.03;22.10;;;1.60;99.90;;;;;;4229278;28;20291;-62
2023/03/04 01:11:04;;;;;;;45.87;21.87;;;1.50;99.90;;;;;;4228181;28;20288;-66
2023/03/04 01:13:05;;;;;;;42.60;22.07;;;1.50;99.90;;;;;;4228592;28;20823;-61
2023/03/04 01:15:09;;;;;;;41.53;23.00;;;1.50;99.90;;;;;;4228155;28;20328;-61
2023/03/04 01:17:11;;;;;;;51.67;25.13;;;1.50;99.90;;;;;;4228022;28;20665;-62
2023/03/04 01:19:12;;;;;;;51.03;24.33;;;1.40;99.90;;;;;;4228207;28;20248;-62
2023/03/04 01:21:13;;;;;;;50.43;25.53;;;1.30;99.90;;;;;;4228428;28;20313;-63
2023/03/04 01:23:14;;;;;;;46.00;23.93;;;1.30;99.90;;;;;;4227163;28;20317;-62
2023/03/04 01:25:15;;;;;;;50.30;25.93;;;1.30;99.90;;;;;;4227369;28;20272;-62
2023/03/04 01:27:17;;;;;;;53.63;25.50;;;1.30;99.90;;;;;;4228506;28;20289;-61
2023/03/04 01:29:18;;;;;;;45.07;23.17;;;1.10;99.90;;;;;;4227503;28;20264;-62
2023/03/04 01:31:19;;;;;;;51.53;23.40;;;1.10;99.90;;;;;;4228149;28;20288;-61
2023/03/04 01:33:20;;;;;;;50.57;24.93;;;1.10;99.90;;;;;;4227403;28;20341;-66
2023/03/04 01:35:21;;;;;;;45.90;22.87;;;1.10;99.90;;;;;;4228386;28;20271;-61
2023/03/04 01:37:22;;;;;;;45.60;24.17;;;1.10;99.90;;;;;;4226266;28;20649;-61
2023/03/04 01:39:24;;;;;;;42.47;22.67;;;1.00;99.90;;;;;;4227615;28;20763;-61
2023/03/04 01:41:26;;;;;;;37.90;21.70;;;1.10;99.90;;;;;;4226586;28;20321;-61
2023/03/04 01:43:29;;;;;;;44.13;22.33;;;1.00;99.90;;;;;;4228817;28;20268;-61
2023/03/04 01:45:31;;;;;;;43.73;22.10;;;1.00;99.90;;;;;;4227528;28;20263;-61
2023/03/04 01:47:34;;;;;;;41.77;21.87;;;1.00;99.90;;;;;;4228487;28;20325;-61
2023/03/04 01:49:35;;;;;;;42.67;20.70;;;1.00;99.90;;;;;;4227524;28;20256;-62
2023/03/04 01:51:37;;;;;;;43.83;22.00;;;1.00;99.90;;;;;;4228089;28;20295;-61
2023/03/04 01:53:38;;;;;;;44.60;20.60;;;1.00;99.90;;;;;;4227067;28;20317;-62
2023/03/04 01:55:40;;;;;;;41.97;22.90;;;0.90;99.90;;;;;;4227814;28;20661;-61
2023/03/04 01:57:41;;;;;;;47.73;24.03;;;0.80;99.90;;;;;;4227997;28;20256;-61
2023/03/04 01:59:42;;;;;;;49.37;22.23;;;0.80;99.90;;;;;;4227494;28;20276;-62
2023/03/04 02:01:49;;;;;;;47.20;22.70;;;0.80;99.90;;;;;;4227318;28;20268;-62
2023/03/04 02:03:50;;;;;;;46.23;22.53;;;0.70;99.90;;;;;;4227306;28;20669;-61
2023/03/04 02:05:52;;;;;;;42.80;21.63;;;0.60;99.90;;;;;;4227783;28;20341;-61
2023/03/04 02:07:54;;;;;;;40.47;19.57;;;0.60;99.90;;;;;;4226147;28;20329;-61
2023/03/04 02:09:55;;;;;;;39.60;19.57;;;0.60;99.90;;;;;;4228272;28;20288;-61
2023/03/04 02:11:57;;;;;;;39.97;20.70;;;0.60;99.90;;;;;;4227040;28;20295;-61
2023/03/04 02:13:59;;;;;;;45.47;21.13;;;0.60;99.90;;;;;;4228264;28;20680;-61
2023/03/04 02:16:00;;;;;;;46.70;22.20;;;0.60;99.90;;;;;;4221084;28;20272;-61
2023/03/04 02:18:06;;;;;;;39.43;20.43;;;0.60;99.90;;;;;;4227724;28;20346;-66
2023/03/04 02:20:14;;;;;;;42.13;21.13;;;0.60;99.90;;;;;;4222989;28;20256;-61
2023/03/04 02:22:15;;;;;;;43.60;20.93;;;0.60;99.90;;;;;;4226892;28;20329;-61
2023/03/04 02:24:35;;;;;;;39.17;19.40;;;0.60;99.90;;;;;;4225884;28;20272;-61
2023/03/04 02:26:40;;;;;;;39.57;20.07;;;0.50;99.90;;;;;;4209448;28;20331;-62
2023/03/04 02:28:41;;;;;;;41.80;20.17;;;0.50;99.90;;;;;;4225940;28;20263;-61
2023/03/04 02:30:42;;;;;;;36.57;19.83;;;0.50;99.90;;;;;;4222525;28;20791;-61
2023/03/04 02:32:43;;;;;;;43.00;20.73;;;0.50;99.90;;;;;;4224871;28;20284;-60
2023/03/04 02:34:47;;;;;;;40.47;19.83;;;0.50;99.90;;;;;;4227710;28;20280;-66
2023/03/04 02:36:51;;;;;;;45.53;20.63;;;0.60;99.90;;;;;;4226903;28;20352;-63
2023/03/04 02:38:53;;;;;;;39.60;19.43;;;0.50;99.90;;;;;;4226509;28;20275;-57
2023/03/04 02:40:56;;;;;;;39.63;20.40;;;0.50;99.90;;;;;;4227803;28;20268;-63
2023/03/04 02:42:59;;;;;;;41.13;20.10;;;0.50;99.90;;;;;;4229862;28;20336;-62
2023/03/04 02:45:00;;;;;;;42.37;21.60;;;0.50;99.90;;;;;;4231141;28;20805;-60
2023/03/04 02:47:04;;;;;;;39.00;21.13;;;0.50;99.90;;;;;;4230211;28;20272;-59
2023/03/04 02:49:05;;;;;;;47.67;20.23;;;0.40;99.90;;;;;;4231472;28;20264;-60
2023/03/04 02:51:06;;;;;;;41.37;20.67;;;0.50;99.90;;;;;;4229940;28;20692;-63
2023/03/04 02:53:08;;;;;;;43.53;20.70;;;0.40;99.90;;;;;;4230784;28;20275;-59
2023/03/04 02:55:09;;;;;;;44.87;22.33;;;0.40;99.90;;;;;;4230150;28;20255;-61
2023/03/04 02:57:11;;;;;;;46.67;22.17;;;0.40;99.90;;;;;;4230475;28;20313;-64
2023/03/04 02:59:13;;;;;;;43.53;20.87;;;0.40;99.90;;;;;;4230171;28;20292;-64
2023/03/04 03:01:14;;;;;;;45.17;20.70;;;0.40;99.90;;;;;;4230416;28;20309;-63
2023/03/04 03:03:15;;;;;;;41.37;20.87;;;0.30;99.90;;;;;;4229700;28;20272;-61
2023/03/04 03:05:17;;;;;;;44.00;21.33;;;0.30;99.90;;;;;;4230753;28;20608;-64
2023/03/04 03:07:18;;;;;;;36.50;20.20;;;0.30;99.90;;;;;;4229964;28;20259;-60
2023/03/04 03:09:20;;;;;;;39.20;21.10;;;0.20;99.90;;;;;;4229337;28;20333;-65
2023/03/04 03:11:21;;;;;;;42.07;20.93;;;0.20;99.90;;;;;;4230015;28;20292;-64
2023/03/04 03:13:22;;;;;;;44.63;20.77;;;0.20;99.90;;;;;;4230285;28;20744;-65
2023/03/04 03:15:24;;;;;;;44.43;21.33;;;0.20;99.90;;;;;;4230745;28;20252;-64
2023/03/04 03:17:25;;;;;;;40.07;19.33;;;0.20;99.90;;;;;;4230184;28;20313;-60
2023/03/04 03:19:26;;;;;;;45.07;20.73;;;0.20;99.90;;;;;;4229941;28;20256;-62
2023/03/04 03:21:27;;;;;;;39.70;20.10;;;0.20;99.90;;;;;;4229101;28;20665;-61
2023/03/04 03:23:28;;;;;;;42.17;19.77;;;0.20;99.90;;;;;;4230804;28;20340;-62
2023/03/04 03:25:29;;;;;;;41.87;20.37;;;0.20;99.90;;;;;;4229792;28;20309;-61
2023/03/04 03:27:30;;;;;;;38.27;19.33;;;0.20;99.90;;;;;;4214041;28;20276;-57
2023/03/04 03:29:32;;;;;;;40.60;19.77;;;0.20;99.90;;;;;;4212833;28;20342;-61
2023/03/04 03:31:33;;;;;;;40.27;20.17;;;0.20;99.90;;;;;;4213980;28;20296;-58
2023/03/04 03:33:34;;;;;;;42.23;22.10;;;0.10;99.90;;;;;;4212933;28;20269;-59
2023/03/04 03:35:35;;;;;;;43.20;19.93;;;0.10;99.90;;;;;;4213547;28;20318;-59
2023/03/04 03:37:37;;;;;;;37.77;19.47;;;0.10;99.90;;;;;;4198643;28;20342;-59
2023/03/04 03:39:38;;;;;;;41.13;20.00;;;0.10;99.90;;;;;;4213676;28;20265;-59
2023/03/04 03:41:39;;;;;;;43.63;20.23;;;0.10;99.90;;;;;;4213250;28;20356;-64
2023/03/04 03:43:40;;;;;;;42.70;19.23;;;0.00;99.90;;;;;;4212990;28;20326;-63
2023/03/04 03:45:41;;;;;;;43.13;20.70;;;0.00;99.90;;;;;;4213393;28;20842;-64
2023/03/04 03:47:42;;;;;;;42.60;21.50;;;0.00;99.90;;;;;;4212568;28;20330;-60
2023/03/04 03:49:43;;;;;;;38.37;19.70;;;-0.10;99.90;;;;;;4213467;28;20390;-59
2023/03/04 03:51:45;;;;;;;40.67;18.83;;;-0.10;99.90;;;;;;4212392;28;20690;-61
2023/03/04 03:53:49;;;;;;;45.73;21.47;;;-0.10;99.90;;;;;;4723024;22;20269;-63
2023/03/04 03:55:50;;;;;;;41.13;18.17;;;-0.10;99.90;;;;;;4243840;27;20275;-64
2023/03/04 03:57:51;;;;;;;39.93;20.07;;;-0.10;99.90;;;;;;4246457;27;20324;-60
2023/03/04 03:59:52;;;;;;;37.93;19.43;;;-0.10;99.90;;;;;;4247209;27;20277;-61
2023/03/04 04:01:54;;;;;;;40.87;18.77;;;-0.10;99.90;;;;;;4246154;27;20256;-63
2023/03/04 04:03:55;;;;;;;38.90;19.87;;;-0.10;99.90;;;;;;4246815;27;20264;-63
2023/03/04 04:05:56;;;;;;;37.90;19.73;;;0.00;99.90;;;;;;4246088;27;20263;-64
2023/03/04 04:07:57;;;;;;;45.37;20.63;;;-0.10;99.90;;;;;;4247232;27;20255;-63
2023/03/04 04:09:58;;;;;;;40.13;19.73;;;0.00;99.90;;;;;;4245750;27;20287;-60
2023/03/04 04:11:59;;;;;;;39.60;19.37;;;0.00;99.90;;;;;;4247019;27;20762;-65
2023/03/04 04:14:00;;;;;;;33.30;18.33;;;0.00;99.90;;;;;;4245880;27;20255;-65
2023/03/04 04:16:01;;;;;;;44.80;18.20;;;-0.10;99.90;;;;;;4246577;27;20316;-62
2023/03/04 04:18:03;;;;;;;40.93;18.80;;;0.00;99.90;;;;;;4246089;27;20243;-62
2023/03/04 04:20:06;;;;;;;35.90;17.10;;;0.00;99.90;;;;;;4246554;27;20267;-58
2023/03/04 04:22:14;;;;;;;38.93;18.50;;;0.00;99.90;;;;;;4246243;27;21009;-61
2023/03/04 04:24:15;;;;;;;41.37;18.90;;;0.00;99.90;;;;;;4244211;27;20926;-64
2023/03/04 04:26:16;;;;;;;37.47;18.97;;;0.00;99.90;;;;;;4246104;27;20284;-57
2023/03/04 04:28:17;;;;;;;35.30;17.90;;;0.00;99.90;;;;;;4246180;27;20320;-55
2023/03/04 04:30:18;;;;;;;37.77;18.93;;;0.00;99.90;;;;;;4246312;27;20343;-62
2023/03/04 04:32:20;;;;;;;36.63;17.97;;;0.00;99.90;;;;;;4245209;27;20364;-59
2023/03/04 04:34:21;;;;;;;42.60;18.63;;;-0.10;99.90;;;;;;4246417;27;20264;-62
2023/03/04 04:36:22;;;;;;;40.40;19.20;;;-0.10;99.90;;;;;;4245727;27;20320;-62
2023/03/04 04:38:24;;;;;;;35.60;16.93;;;-0.10;99.90;;;;;;4246853;27;20267;-62
2023/03/04 04:40:25;;;;;;;38.97;17.93;;;-0.10;99.90;;;;;;4245598;27;20264;-64
2023/03/04 04:42:26;;;;;;;32.60;17.20;;;-0.20;99.90;;;;;;4246819;27;20283;-65
2023/03/04 04:44:27;;;;;;;35.70;17.40;;;-0.10;99.90;;;;;;4245338;27;20312;-62
2023/03/04 04:46:29;;;;;;;37.90;18.73;;;-0.10;99.90;;;;;;4246386;27;20317;-64
2023/03/04 04:48:30;;;;;;;36.03;17.53;;;-0.10;99.90;;;;;;4245238;27;20308;-63
2023/03/04 04:50:31;;;;;;;42.50;18.90;;;-0.20;99.90;;;;;;4246048;27;20259;-65
2023/03/04 04:52:32;;;;;;;34.40;17.47;;;-0.10;99.90;;;;;;4245624;27;20782;-61
2023/03/04 04:54:33;;;;;;;36.30;19.40;;;-0.10;99.90;;;;;;4245738;27;20312;-64
2023/03/04 04:56:34;;;;;;;37.47;19.27;;;-0.10;99.90;;;;;;4246081;27;20335;-60
2023/03/04 04:58:36;;;;;;;42.53;20.37;;;-0.20;99.90;;;;;;4244034;27;20424;-61
2023/03/04 05:00:37;;;;;;;38.97;18.80;;;-0.20;99.90;;;;;;4246164;27;20259;-60
2023/03/04 05:02:38;;;;;;;42.53;19.93;;;-0.20;99.90;;;;;;4244833;27;20332;-60
2023/03/04 05:04:39;;;;;;;36.37;18.83;;;-0.20;99.90;;;;;;4245598;27;20263;-61
2023/03/04 05:06:41;;;;;;;39.07;20.40;;;-0.20;99.90;;;;;;4245042;27;20271;-67
2023/03/04 05:08:42;;;;;;;40.63;19.90;;;-0.30;99.90;;;;;;4244318;27;20717;-65
2023/03/04 05:10:43;;;;;;;41.00;19.03;;;-0.30;99.90;;;;;;4245112;27;20263;-61
2023/03/04 05:12:44;;;;;;;36.87;18.80;;;-0.30;99.90;;;;;;4246210;27;20295;-64
2023/03/04 05:14:45;;;;;;;34.50;18.37;;;-0.30;99.90;;;;;;4244912;27;20267;-64
2023/03/04 05:16:46;;;;;;;34.57;17.77;;;-0.20;99.90;;;;;;4246121;27;20267;-62
2023/03/04 05:18:47;;;;;;;40.20;21.17;;;-0.20;99.90;;;;;;4244800;27;20357;-63
2023/03/04 05:21:00;;;;;;;36.13;18.87;;;-0.10;99.90;;;;;;4245580;27;20328;-66
2023/03/04 05:23:01;;;;;;;36.03;18.23;;;0.00;99.90;;;;;;4245251;27;20661;-60
2023/03/04 05:25:02;;;;;;;34.77;17.30;;;0.20;99.90;;;;;;4245597;27;20263;-58
2023/03/04 05:27:03;;;;;;;35.67;18.60;;;0.30;99.90;;;;;;4245107;27;20646;-60
2023/03/04 05:29:04;;;;;;;37.60;18.70;;;0.50;99.90;;;;;;4245015;27;20260;-64
2023/03/04 05:31:06;;;;;;;38.80;18.67;;;0.70;99.90;;;;;;4245343;27;20263;-64
2023/03/04 05:33:08;;;;;;;36.57;18.93;;;0.90;99.90;;;;;;4244387;27;20267;-60
2023/03/04 05:35:09;;;;;;;36.77;18.30;;;1.10;99.90;;;;;;4244939;27;20332;-62
2023/03/04 05:37:10;;;;;;;34.63;17.60;;;1.40;99.90;;;;;;4243223;27;20766;-59
2023/03/04 05:39:11;;;;;;;31.50;16.20;;;1.60;99.90;;;;;;4245905;27;20340;-62
2023/03/04 05:41:12;;;;;;;35.33;18.17;;;1.80;99.90;;;;;;4244518;27;20301;-62
2023/03/04 05:43:14;;;;;;;29.90;16.60;;;2.20;99.90;;;;;;4245357;27;20279;-64
2023/03/04 05:45:15;;;;;;;37.73;17.23;;;2.50;99.90;;;;;;4244262;27;20320;-64
2023/03/04 05:47:16;;;;;;;36.73;18.67;;;2.80;99.90;;;;;;4245748;27;20267;-61
2023/03/04 05:49:18;;;;;;;40.93;18.00;;;3.00;99.90;;;;;;4244059;27;20755;-65
2023/03/04 05:51:20;;;;;;;30.60;15.93;;;3.30;99.90;;;;;;4244835;27;20687;-62
2023/03/04 05:53:21;;;;;;;32.53;17.40;;;3.50;99.90;;;;;;4244575;27;20263;-64
2023/03/04 05:55:23;;;;;;;29.20;17.73;;;3.80;99.90;;;;;;4244729;27;20279;-62
2023/03/04 05:57:24;;;;;;;32.50;17.50;;;4.10;99.90;;;;;;4244780;27;20263;-63
2023/03/04 05:59:25;;;;;;;35.47;16.97;;;4.20;99.90;;;;;;4244304;27;20243;-67
2023/03/04 06:01:26;;;;;;;30.53;17.07;;;4.50;99.90;;;;;;4244632;27;20255;-61
2023/03/04 06:03:27;;;;;;;33.90;18.47;;;4.40;99.90;;;;;;4234051;27;20080;-59
2023/03/04 06:05:28;;;;;;;32.17;17.47;;;4.30;99.90;;;;;;4228227;28;20060;-59
2023/03/04 06:07:30;;;;;;;34.87;17.60;;;4.60;99.90;;;;;;4237547;27;20080;-66
2023/03/04 06:09:32;;;;;;;30.20;16.43;;;5.10;99.90;;;;;;4245319;27;20575;-63
2023/03/04 06:11:33;;;;;;;38.87;17.60;;;5.60;99.90;;;;;;4243644;27;20100;-65
2023/03/04 06:13:35;;;;;;;28.57;17.17;;;6.10;99.90;;;;;;4244536;27;20056;-61
2023/03/04 06:15:37;;;;;;;32.00;18.10;;;6.50;99.90;;;;;;4243878;27;20039;-65
2023/03/04 06:17:40;;;;;;;28.63;17.00;;;6.80;99.90;;;;;;4245037;27;20039;-66
2023/03/04 06:19:41;;;;;;;29.90;17.77;;;6.90;99.90;;;;;;4243647;27;20076;-65
2023/03/04 06:21:42;;;;;;;29.13;16.80;;;7.10;99.90;;;;;;4244561;27;20050;-65
2023/03/04 06:23:44;;;;;;;32.87;16.27;;;7.40;99.90;;;;;;4244112;28;20368;-65
2023/03/04 06:25:45;;;;;;;27.87;16.30;;;7.60;99.90;;;;;;4243732;27;20051;-61
2023/03/04 06:27:46;;;;;;;28.27;17.57;;;7.70;99.90;;;;;;4244727;28;20015;-61
2023/03/04 06:29:47;;;;;;;31.10;17.43;;;7.80;99.90;;;;;;4243079;28;20015;-61
2023/03/04 06:31:48;;;;;;;25.93;15.73;;;8.10;99.90;;;;;;4244719;27;20051;-62
2023/03/04 06:33:50;;;;;;;26.20;15.53;;;8.30;99.90;;;;;;4243867;28;20483;-62
2023/03/04 06:35:55;;;;;;;26.53;14.23;;;8.70;99.90;;;;;;4244798;27;20043;-61
2023/03/04 06:37:56;;;;;;;24.63;13.97;;;9.00;99.90;;;;;;4243915;27;20086;-65
2023/03/04 06:39:58;;;;;;;24.03;13.63;;;9.30;99.90;;;;;;4245019;28;20106;-61
2023/03/04 06:41:59;;;;;;;25.10;13.87;;;9.60;99.90;;;;;;4242884;27;20084;-61
2023/03/04 06:44:00;;;;;;;20.03;12.30;;;9.90;99.90;;;;;;4243697;27;20035;-61
2023/03/04 06:46:01;;;;;;;20.03;10.63;;;10.10;99.90;;;;;;4242089;27;20031;-61
2023/03/04 06:48:02;;;;;;;18.60;10.20;;;10.20;99.90;;;;;;4243675;27;20344;-62
2023/03/04 06:50:04;;;;;;;20.37;10.23;;;10.50;99.90;;;;;;4243107;27;20027;-60
2023/03/04 06:52:05;;;;;;;16.90;9.83;;;10.60;99.90;;;;;;4244911;28;20084;-65
2023/03/04 06:54:07;;;;;;;16.00;10.13;;;10.90;99.90;;;;;;4243200;28;20154;-54
2023/03/04 06:56:09;;;;;;;17.30;10.47;;;11.00;99.90;;;;;;4244300;27;20047;-69
2023/03/04 06:58:10;;;;;;;16.67;9.37;;;10.90;99.60;;;;;;4243333;28;20451;-65
2023/03/04 07:00:12;;;;;;;17.97;9.30;;;10.70;99.60;;;;;;4243076;27;20478;-61
2023/03/04 07:02:13;;;;;;;17.67;9.63;;;10.90;99.60;;;;;;4243159;27;20127;-61
2023/03/04 07:04:14;;;;;;;18.13;9.50;;;11.00;98.50;;;;;;4242114;27;20104;-61
2023/03/04 07:06:17;;;;;;;15.50;9.30;;;11.00;98.50;;;;;;4244323;28;20100;-61
2023/03/04 07:08:18;;;;;;;17.33;9.37;;;10.90;98.20;;;;;;4243382;28;20028;-63
2023/03/04 07:10:20;;;;;;;16.73;8.87;;;10.70;98.00;;;;;;4244623;28;20027;-63
2023/03/04 07:12:21;;;;;;;17.07;9.73;;;10.50;97.70;;;;;;4242296;28;20104;-63
2023/03/04 07:14:22;;;;;;;14.30;9.30;;;10.60;98.00;;;;;;4244288;28;20160;-62
2023/03/04 07:16:23;;;;;;;17.30;9.53;;;10.90;97.60;;;;;;4243469;28;20060;-62
2023/03/04 07:18:24;;;;;;;14.70;8.73;;;10.70;97.50;;;;;;4244546;28;20080;-61
2023/03/04 07:20:25;;;;;;;22.63;9.10;;;10.70;97.40;;;;;;4243458;28;20049;-62
2023/03/04 07:22:26;;;;;;;20.20;8.90;;;10.50;97.30;;;;;;4244617;28;20432;-61
2023/03/04 07:24:28;;;;;;;18.43;9.77;;;10.70;97.00;;;;;;4242254;28;20035;-64
2023/03/04 07:26:29;;;;;;;16.70;9.00;;;11.20;96.80;;;;;;4239395;28;20043;-62
2023/03/04 07:28:30;;;;;;;17.63;9.30;;;11.50;96.20;;;;;;4244921;27;20416;-65
2023/03/04 07:30:31;;;;;;;15.47;8.27;;;11.30;95.80;;;;;;4245901;27;20027;-66
2023/03/04 07:32:35;;;;;;;18.67;9.30;;;11.10;96.00;;;;;;4246033;27;20254;-61
2023/03/04 07:34:36;;;;;;;15.00;9.20;;;11.30;96.30;;;;;;4246256;27;20027;-64
2023/03/04 07:36:38;;;;;;;21.07;9.40;;;11.30;95.80;;;;;;4246791;27;20424;-62
2023/03/04 07:38:43;;;;;;;15.07;8.83;;;11.40;96.00;;;;;;4246513;27;20038;-62
2023/03/04 07:40:44;;;;;;;16.43;8.03;;;11.70;95.80;;;;;;4246837;27;20072;-63
2023/03/04 07:42:53;;;;;;;15.83;7.67;;;11.90;95.50;;;;;;4245598;27;20031;-62
2023/03/04 07:44:54;;;;;;;15.23;8.33;;;12.10;94.90;;;;;;4247073;27;20103;-63
2023/03/04 07:46:55;;;;;;;20.03;8.70;;;12.50;94.50;;;;;;4246038;27;20127;-62
2023/03/04 07:48:56;;;;;;;13.77;9.00;;;12.90;94.30;;;;;;4247065;27;20031;-62
2023/03/04 07:51:08;;;;;;;16.43;9.03;;;13.20;93.50;;;;;;4245628;27;20052;-63
2023/03/04 07:53:09;;;;;;;16.87;9.87;;;13.30;92.50;;;;;;4246842;27;20043;-64
2023/03/04 07:55:12;;;;;;;13.63;9.37;;;13.10;92.70;;;;;;4245871;27;20100;-63
2023/03/04 07:57:13;;;;;;;22.57;10.80;;;12.80;92.60;;;;;;4246981;27;20486;-63
2023/03/04 07:59:14;;;;;;;20.77;10.67;;;12.70;92.90;;;;;;4246406;27;20087;-64
2023/03/04 08:01:22;;;;;;;14.73;9.50;;;12.70;92.80;;;;;;4246957;27;20080;-70
2023/03/04 08:03:24;;;;;;;17.77;9.67;;;12.80;92.60;;;;;;4245536;27;20050;-64
2023/03/04 08:05:25;;;;;;;16.27;9.03;;;12.80;92.60;;;;;;4246387;27;20027;-64
2023/03/04 08:07:26;;;;;;;18.60;9.47;;;13.10;92.40;;;;;;4244505;27;20407;-64
2023/03/04 08:09:27;;;;;;;17.33;10.90;;;13.00;92.70;;;;;;4246174;27;20470;-62
2023/03/04 08:11:30;;;;;;;14.53;7.73;;;12.40;92.20;;;;;;4245152;27;20163;-61
2023/03/04 08:13:31;;;;;;;11.90;7.10;;;11.80;92.60;;;;;;4245257;27;20051;-63
2023/03/04 08:15:34;;;;;;;14.07;8.63;;;11.80;93.30;;;;;;4245913;27;20039;-62
2023/03/04 08:17:35;;;;;;;19.03;11.17;;;12.40;92.90;;;;;;4245648;27;20114;-63
2023/03/04 08:19:36;;;;;;;32.37;21.30;;;12.80;92.30;;;;;;4246148;27;20039;-64
2023/03/04 08:21:37;;;;;;;16.43;9.70;;;12.90;91.80;;;;;;4245208;27;20027;-60
2023/03/04 08:23:41;;;;;;;25.33;13.87;;;12.70;91.40;;;;;;4246456;27;20088;-60
2023/03/04 08:25:42;;;;;;;19.83;9.60;;;12.60;92.10;;;;;;4245195;27;20035;-60
2023/03/04 08:27:43;;;;;;;13.30;8.47;;;12.70;91.90;;;;;;4246713;27;20053;-60
2023/03/04 08:29:44;;;;;;;14.67;8.87;;;12.50;91.60;;;;;;4245051;27;20055;-61
2023/03/04 08:31:47;;;;;;;20.23;11.27;;;12.50;92.10;;;;;;4245077;27;20091;-60
2023/03/04 08:33:48;;;;;;;31.57;16.77;;;12.50;91.90;;;;;;4244254;27;20039;-61
2023/03/04 08:35:49;;;;;;;16.30;9.73;;;12.50;92.10;;;;;;4245255;27;20088;-62
2023/03/04 08:37:50;;;;;;;21.63;10.10;;;12.20;92.00;;;;;;4244278;27;20027;-61
2023/03/04 08:39:51;;;;;;;20.83;9.33;;;12.00;92.30;;;;;;4244927;27;20506;-62
2023/03/04 08:41:52;;;;;;;21.40;8.73;;;12.00;92.30;;;;;;4244934;27;20035;-61
2023/03/04 08:43:54;;;;;;;23.37;9.97;;;11.90;92.10;;;;;;4245508;27;20043;-62
2023/03/04 08:45:55;;;;;;;15.00;9.20;;;12.00;92.70;;;;;;4246094;27;20084;-60
2023/03/04 08:47:56;;;;;;;16.00;8.50;;;12.20;92.30;;;;;;4244526;27;20075;-63
2023/03/04 08:49:58;;;;;;;22.47;8.47;;;12.10;92.20;;;;;;4245915;27;20045;-61
2023/03/04 08:51:59;;;;;;;13.63;7.10;;;12.30;91.80;;;;;;4244340;27;20023;-61
2023/03/04 08:54:02;;;;;;;10.73;6.73;;;12.40;91.60;;;;;;4245935;27;20084;-62
2023/03/04 08:56:04;;;;;;;14.40;6.97;;;12.40;91.50;;;;;;4243609;27;20043;-61
2023/03/04 08:58:06;;;;;;;11.83;6.73;;;12.50;91.30;;;;;;4245954;27;20040;-61
2023/03/04 09:00:08;;;;;;;8.77;5.67;;;12.60;90.90;;;;;;4244545;27;20043;-61
2023/03/04 09:02:10;;;;;;;10.77;6.50;;;12.30;90.70;;;;;;4245495;27;20115;-61
2023/03/04 09:04:11;;;;;;;8.90;6.10;;;12.00;90.40;;;;;;4244589;27;20436;-60
2023/03/04 09:06:14;;;;;;;21.53;7.27;;;12.00;90.70;;;;;;4245841;27;20023;-62
2023/03/04 09:08:16;;;;;;;13.87;6.80;;;11.90;90.10;;;;;;4244494;27;20031;-61
2023/03/04 09:10:17;;;;;;;18.90;8.47;;;11.90;90.30;;;;;;4245504;27;20783;-61
2023/03/04 09:12:18;;;;;;;29.67;9.70;;;11.70;90.40;;;;;;4244845;27;20064;-61
2023/03/04 09:14:19;;;;;;;28.77;9.20;;;11.30;90.50;;;;;;4244490;27;20031;-61
2023/03/04 09:16:20;;;;;;;32.47;9.70;;;10.90;90.80;;;;;;4244906;27;20112;-63
2023/03/04 09:18:23;;;;;;;27.07;10.03;;;10.50;91.20;;;;;;4244594;27;20080;-64
2023/03/04 09:20:24;;;;;;;23.83;9.73;;;10.30;91.50;;;;;;4245173;27;20191;-61
2023/03/04 09:22:25;;;;;;;18.50;8.80;;;10.20;91.80;;;;;;4244024;27;20039;-61
2023/03/04 09:24:27;;;;;;;29.47;10.93;;;10.20;91.80;;;;;;4245369;27;20096;-65
2023/03/04 09:26:29;;;;;;;23.47;8.27;;;10.10;92.00;;;;;;4243576;27;20428;-62
2023/03/04 09:28:30;;;;;;;25.33;8.73;;;10.00;91.70;;;;;;4245474;27;20047;-60
2023/03/04 09:30:32;;;;;;;24.03;9.30;;;10.00;91.90;;;;;;4243939;27;20047;-61
2023/03/04 09:32:33;;;;;;;21.10;8.60;;;10.00;92.30;;;;;;4244404;27;20380;-62
2023/03/04 09:34:34;;;;;;;21.47;8.73;;;10.00;92.60;;;;;;4243892;27;20381;-61
2023/03/04 09:36:35;;;;;;;17.10;8.73;;;10.10;92.40;;;;;;4245142;27;20490;-61
2023/03/04 09:38:38;;;;;;;22.90;9.00;;;10.40;92.30;;;;;;4244221;27;20023;-62
2023/03/04 09:40:43;;;;;;;13.80;8.23;;;10.40;91.90;;;;;;4245050;27;20470;-65
2023/03/04 09:42:54;;;;;;;16.30;8.00;;;10.40;92.10;;;;;;4244415;27;20470;-62
2023/03/04 09:44:56;;;;;;;17.63;8.77;;;10.40;92.30;;;;;;4245035;27;20428;-61
2023/03/04 09:47:00;;;;;;;15.73;7.97;;;10.40;92.50;;;;;;4244294;27;20068;-61
2023/03/04 09:49:03;;;;;;;18.10;7.97;;;10.50;92.60;;;;;;4244515;27;20077;-61
2023/03/04 09:51:19;;;;;;;17.60;7.50;;;10.50;92.40;;;;;;4243994;27;20068;-64
2023/03/04 09:53:26;;;;;;;13.37;7.53;;;10.30;92.60;;;;;;4244618;27;20490;-63
2023/03/04 09:55:32;;;;;;;16.13;8.40;;;9.90;93.00;;;;;;4244431;27;20510;-61
2023/03/04 09:57:40;;;;;;;16.57;7.40;;;9.70;93.30;;;;;;4244108;27;20096;-62
2023/03/04 09:59:49;;;;;;;15.43;7.70;;;9.60;93.60;;;;;;4244566;27;20027;-61
2023/03/04 10:01:54;;;;;;;15.50;7.73;;;9.70;93.70;;;;;;4244218;27;20019;-62
2023/03/04 10:04:05;;;;;;;16.97;8.47;;;10.00;93.70;;;;;;4244221;27;20027;-62
2023/03/04 10:06:08;;;;;;;;;;;9.90;93.70;;;;;;4244498;27;20068;-63
2023/03/04 10:08:31;;;;;;;22.27;8.17;;;9.80;93.80;;;;;;4244096;27;20248;-60
2023/03/04 10:10:38;;;;;;;18.20;7.97;;;9.70;94.20;;;;;;4243426;27;20119;-61
2023/03/04 10:12:45;;;;;;;21.07;8.10;;;9.60;94.20;;;;;;4243808;27;20055;-61
2023/03/04 10:14:51;;;;;;;18.00;8.83;;;9.50;94.40;;;;;;4243976;27;20039;-63
2023/03/04 10:16:56;;;;;;;16.00;7.80;;;9.60;94.40;;;;;;4243956;27;20519;-60
2023/03/04 10:19:01;;;;;;;20.10;7.57;;;9.70;94.40;;;;;;4243861;27;20027;-61
2023/03/04 10:21:13;;;;;;;14.53;8.80;;;9.80;94.40;;;;;;4244269;27;20035;-61
2023/03/04 10:23:20;;;;;;;18.77;8.97;;;9.80;94.40;;;;;;4243492;28;20373;-60
2023/03/04 10:25:23;;;;;;;16.90;7.77;;;9.80;94.40;;;;;;4244185;28;20027;-60